sensor_id;sensor_type;location;lat;lon;timestamp;temperature;humidity
46634;DHT22;32362;49.986;8.026;2023-02-18T00:23:36;13.00;99.40
46634;DHT22;32362;49.986;8.026;2023-02-18T00:50:17;12.80;99.30
46634;DHT22;32362;49.986;8.026;2023-02-18T01:16:57;13.00;97.20
46634;DHT22;32362;49.986;8.026;2023-02-18T01:43:38;12.90;96.90
46634;DHT22;32362;49.986;8.026;2023-02-18T02:10:19;12.70;96.90
46634;DHT22;32362;49.986;8.026;2023-02-18T03:31:12;12.40;97.50
46634;DHT22;32362;49.986;8.026;2023-02-18T03:57:56;12.40;97.80
46634;DHT22;32362;49.986;8.026;2023-02-18T04:24:37;12.50;96.80
46634;DHT22;32362;49.986;8.026;2023-02-18T04:51:17;11.70;99.90
46634;DHT22;32362;49.986;8.026;2023-02-18T05:17:58;11.30;99.90
46634;DHT22;32362;49.986;8.026;2023-02-18T05:44:39;11.60;99.90
46634;DHT22;32362;49.986;8.026;2023-02-18T06:11:19;11.50;99.90
46634;DHT22;32362;49.986;8.026;2023-02-18T06:38:00;11.50;99.90
46634;DHT22;32362;49.986;8.026;2023-02-18T07:04:42;11.40;96.70
46634;DHT22;32362;49.986;8.026;2023-02-18T07:31:25;11.30;94.70
46634;DHT22;32362;49.986;8.026;2023-02-18T07:58:06;11.90;92.50
46634;DHT22;32362;49.986;8.026;2023-02-18T08:24:46;12.10;90.20
46634;DHT22;32362;49.986;8.026;2023-02-18T08:51:27;11.90;88.40
46634;DHT22;32362;49.986;8.026;2023-02-18T09:18:07;12.40;88.10
46634;DHT22;32362;49.986;8.026;2023-02-18T09:44:51;12.30;86.70
46634;DHT22;32362;49.986;8.026;2023-02-18T10:11:41;12.40;85.90
46634;DHT22;32362;49.986;8.026;2023-02-18T11:05:23;12.40;85.40
46634;DHT22;32362;49.986;8.026;2023-02-18T11:32:10;12.50;84.50
46634;DHT22;32362;49.986;8.026;2023-02-18T11:58:51;12.70;84.30
46634;DHT22;32362;49.986;8.026;2023-02-18T12:25:54;13.40;82.70
46634;DHT22;32362;49.986;8.026;2023-02-18T12:52:56;13.10;85.20
46634;DHT22;32362;49.986;8.026;2023-02-18T13:19:46;13.80;81.90
46634;DHT22;32362;49.986;8.026;2023-02-18T13:46:28;15.40;77.00
46634;DHT22;32362;49.986;8.026;2023-02-18T14:13:41;14.50;79.60
46634;DHT22;32362;49.986;8.026;2023-02-18T15:07:27;13.90;83.60
46634;DHT22;32362;49.986;8.026;2023-02-18T16:01:27;13.20;86.70
46634;DHT22;32362;49.986;8.026;2023-02-18T16:28:15;12.60;89.50
46634;DHT22;32362;49.986;8.026;2023-02-18T16:54:56;12.60;89.90
46634;DHT22;32362;49.986;8.026;2023-02-18T17:21:38;12.20;90.70
46634;DHT22;32362;49.986;8.026;2023-02-18T17:48:19;11.90;91.30
46634;DHT22;32362;49.986;8.026;2023-02-18T18:14:59;11.50;92.50
46634;DHT22;32362;49.986;8.026;2023-02-18T18:41:42;11.30;93.10
46634;DHT22;32362;49.986;8.026;2023-02-18T19:08:22;11.40;92.90
46634;DHT22;32362;49.986;8.026;2023-02-18T19:35:03;11.20;93.80
46634;DHT22;32362;49.986;8.026;2023-02-18T20:01:44;11.30;93.30
46634;DHT22;32362;49.986;8.026;2023-02-18T20:28:24;11.20;93.70
46634;DHT22;32362;49.986;8.026;2023-02-18T20:55:05;11.00;94.20
46634;DHT22;32362;49.986;8.026;2023-02-18T21:21:46;11.10;94.30
46634;DHT22;32362;49.986;8.026;2023-02-18T21:48:27;10.90;94.80
46634;DHT22;32362;49.986;8.026;2023-02-18T22:15:26;10.70;94.80
46634;DHT22;32362;49.986;8.026;2023-02-18T22:42:06;10.90;94.80
46634;DHT22;32362;49.986;8.026;2023-02-18T23:08:47;10.90;94.60
46634;DHT22;32362;49.986;8.026;2023-02-18T23:35:28;10.80;95.10
